createdAt,value
2022-07-28T00:03:09.385Z,5.60
2022-07-28T00:08:31.362Z,5.00
2022-07-28T00:13:53.191Z,5.53
2022-07-28T00:19:15.037Z,5.38
2022-07-28T00:24:36.889Z,5.65
2022-07-28T00:29:58.758Z,5.85
2022-07-28T00:35:30.276Z,6.65
2022-07-28T00:40:53.041Z,5.85
2022-07-28T00:46:14.952Z,6.60
2022-07-28T00:51:36.933Z,6.10
2022-07-28T00:56:58.790Z,5.88
2022-07-28T01:02:20.750Z,6.32
2022-07-28T01:07:42.709Z,6.68
2022-07-28T01:13:04.545Z,6.20
2022-07-28T01:18:26.384Z,6.40
2022-07-28T01:23:48.253Z,5.50
2022-07-28T01:29:10.144Z,6.18
2022-07-28T01:34:32.005Z,5.97
2022-07-28T01:39:53.852Z,6.57
2022-07-28T01:45:15.697Z,6.43
2022-07-28T01:50:37.546Z,6.88
2022-07-28T01:55:59.386Z,6.60
2022-07-28T02:01:21.306Z,6.30
2022-07-28T02:06:43.180Z,5.75
2022-07-28T02:12:05.022Z,5.97
2022-07-28T02:17:26.866Z,5.55
2022-07-28T02:22:51.603Z,5.43
2022-07-28T02:28:13.959Z,5.10
2022-07-28T02:33:59.312Z,5.13
2022-07-28T02:39:17.659Z,5.20
2022-07-28T02:44:39.508Z,4.78
2022-07-28T02:50:01.348Z,5.30
2022-07-28T02:55:23.169Z,5.50
2022-07-28T03:00:45.019Z,5.13
2022-07-28T03:06:06.897Z,5.43
2022-07-28T03:11:28.732Z,6.80
2022-07-28T03:16:55.373Z,6.55
2022-07-28T03:22:17.539Z,6.28
2022-07-28T03:27:39.368Z,5.90
2022-07-28T03:33:01.231Z,6.07
2022-07-28T03:38:23.065Z,4.63
2022-07-28T03:43:44.888Z,6.60
2022-07-28T03:49:06.786Z,5.60
2022-07-28T03:54:28.692Z,5.57
2022-07-28T03:59:50.534Z,5.60
2022-07-28T04:05:12.364Z,5.93
2022-07-28T04:10:34.170Z,5.78
2022-07-28T04:15:56.019Z,6.40
2022-07-28T04:21:17.884Z,6.10
2022-07-28T04:26:39.739Z,6.35
2022-07-28T04:32:01.574Z,6.28
2022-07-28T04:37:23.419Z,6.30
2022-07-28T04:42:45.238Z,6.47
2022-07-28T04:48:07.075Z,6.30
2022-07-28T04:53:28.922Z,6.07
2022-07-28T04:58:50.763Z,5.88
2022-07-28T05:04:13.031Z,6.78
2022-07-28T05:09:35.007Z,5.60
2022-07-28T05:14:56.837Z,5.90
2022-07-28T05:20:18.691Z,5.07
2022-07-28T05:25:40.542Z,5.18
2022-07-28T05:31:02.383Z,4.85
2022-07-28T05:36:24.223Z,4.50
2022-07-28T05:41:46.062Z,4.82
2022-07-28T05:47:07.875Z,4.65
2022-07-28T05:52:29.687Z,3.90
2022-07-28T05:57:51.517Z,3.75
2022-07-28T06:03:13.340Z,3.42
2022-07-28T06:08:35.210Z,3.20
2022-07-28T06:13:57.108Z,3.50
2022-07-28T06:19:19.009Z,3.92
2022-07-28T06:24:40.868Z,3.20
2022-07-28T06:30:02.693Z,2.70
2022-07-28T06:35:24.551Z,1.90
2022-07-28T06:40:46.396Z,1.90
2022-07-28T06:46:08.239Z,1.75
2022-07-28T06:51:30.087Z,1.60
2022-07-28T06:56:51.909Z,1.60
2022-07-28T07:02:14.548Z,1.63
2022-07-28T07:07:42.641Z,1.60
2022-07-28T07:13:05.251Z,1.60
2022-07-28T07:18:27.076Z,1.55
2022-07-28T07:23:48.910Z,1.05
2022-07-28T07:29:10.739Z,1.33
2022-07-28T07:34:32.590Z,1.13
2022-07-28T07:39:54.488Z,1.38
2022-07-28T07:45:16.337Z,0.90
2022-07-28T07:50:38.177Z,1.30
2022-07-28T07:56:00.011Z,1.35
2022-07-28T08:01:21.896Z,1.40
2022-07-28T08:06:43.765Z,1.50
2022-07-28T08:12:05.691Z,1.17
2022-07-28T08:17:27.546Z,1.20
2022-07-28T08:22:49.389Z,1.67
2022-07-28T08:28:11.233Z,1.40
2022-07-28T08:33:33.931Z,1.40
2022-07-28T08:38:55.809Z,1.13
2022-07-28T08:44:17.990Z,1.48
2022-07-28T08:49:40.355Z,1.40
2022-07-28T08:55:02.990Z,1.77
2022-07-28T09:00:24.876Z,1.33
2022-07-28T09:05:46.742Z,1.70
2022-07-28T09:11:08.589Z,1.50
2022-07-28T09:16:30.481Z,1.20
2022-07-28T09:21:52.385Z,2.17
2022-07-28T09:27:14.245Z,1.63
2022-07-28T09:32:36.102Z,1.52
2022-07-28T09:37:57.944Z,1.40
2022-07-28T09:43:19.809Z,1.33
2022-07-28T09:48:41.995Z,1.60
2022-07-28T09:54:04.016Z,1.80
2022-07-28T09:59:25.920Z,1.77
2022-07-28T10:04:49.964Z,1.52
2022-07-28T10:10:11.801Z,1.67
2022-07-28T10:15:33.739Z,1.52
2022-07-28T10:20:55.648Z,1.17
2022-07-28T10:26:17.477Z,1.40
2022-07-28T10:31:39.313Z,1.45
2022-07-28T10:37:01.136Z,1.45
2022-07-28T10:42:22.997Z,1.70
2022-07-28T10:47:44.824Z,1.10
2022-07-28T10:53:06.662Z,1.60
2022-07-28T10:58:29.010Z,1.40
2022-07-28T11:03:51.021Z,1.70
2022-07-28T11:09:12.971Z,1.85
2022-07-28T11:14:37.656Z,2.00
2022-07-28T11:20:24.578Z,1.40
2022-07-28T11:25:41.778Z,1.13
2022-07-28T11:31:03.700Z,1.30
2022-07-28T11:36:25.601Z,1.42
2022-07-28T11:41:47.437Z,1.05
2022-07-28T11:47:09.963Z,1.20
2022-07-28T11:52:31.807Z,1.40
2022-07-28T11:57:53.958Z,1.60
2022-07-28T12:03:15.897Z,1.48
2022-07-28T12:08:44.120Z,0.90
2022-07-28T12:14:05.966Z,1.50
2022-07-28T12:19:33.022Z,1.50
2022-07-28T12:24:55.398Z,1.48
2022-07-28T12:30:17.251Z,1.30
2022-07-28T12:35:41.086Z,1.40
2022-07-28T12:41:02.947Z,1.35
2022-07-28T12:46:28.288Z,2.33
2022-07-28T12:51:50.472Z,1.65
2022-07-28T12:57:12.304Z,1.58
2022-07-28T13:02:34.215Z,2.83
2022-07-28T13:07:56.097Z,1.83
2022-07-28T13:13:18.772Z,1.42
2022-07-28T13:18:40.607Z,1.20
2022-07-28T13:24:02.449Z,1.40
2022-07-28T13:29:24.321Z,1.23
2022-07-28T13:34:46.167Z,1.63
2022-07-28T13:40:08.067Z,1.45
2022-07-28T13:45:30.076Z,1.50
2022-07-28T13:50:52.294Z,1.70
2022-07-28T13:56:14.137Z,2.30
2022-07-28T14:01:35.965Z,1.98
2022-07-28T14:06:58.666Z,2.40
2022-07-28T14:12:20.499Z,3.13
2022-07-28T14:17:43.736Z,2.25
2022-07-28T14:23:07.243Z,2.40
2022-07-28T14:28:29.099Z,1.80
2022-07-28T14:33:54.416Z,2.20
2022-07-28T14:39:16.811Z,2.13
2022-07-28T14:44:38.648Z,2.10
2022-07-28T14:50:00.480Z,1.90
2022-07-28T14:55:22.322Z,1.80
2022-07-28T15:00:44.152Z,2.00
2022-07-28T15:06:05.989Z,2.28
2022-07-28T15:11:27.826Z,2.45
2022-07-28T15:16:49.656Z,2.30
2022-07-28T15:22:11.489Z,2.45
2022-07-28T15:27:34.423Z,2.40
2022-07-28T15:32:57.330Z,1.90
2022-07-28T15:38:19.300Z,2.30
2022-07-28T15:43:41.129Z,1.80
2022-07-28T15:49:03.045Z,1.77
2022-07-28T15:54:24.959Z,1.90
2022-07-28T15:59:48.881Z,2.15
2022-07-28T16:05:12.311Z,1.80
2022-07-28T16:10:34.152Z,1.60
2022-07-28T16:15:56.062Z,1.70
2022-07-28T16:21:17.942Z,1.70
2022-07-28T16:26:39.801Z,1.48
2022-07-28T16:32:01.642Z,1.25
2022-07-28T16:37:23.490Z,1.30
2022-07-28T16:42:45.306Z,1.40
2022-07-28T16:48:07.145Z,1.40
2022-07-28T16:53:28.987Z,1.63
2022-07-28T16:58:50.811Z,1.38
2022-07-28T17:04:13.057Z,1.23
2022-07-28T17:09:35.225Z,1.17
2022-07-28T17:14:57.087Z,1.40
2022-07-28T17:20:18.949Z,1.33
2022-07-28T17:25:59.549Z,1.23
2022-07-28T17:31:22.694Z,1.10
2022-07-28T17:36:44.569Z,1.33
2022-07-28T17:42:06.379Z,1.48
2022-07-28T17:47:35.910Z,1.70
2022-07-28T17:52:58.332Z,1.45
2022-07-28T17:58:21.383Z,1.30
2022-07-28T18:03:57.649Z,1.40
2022-07-28T18:09:22.040Z,1.25
2022-07-28T18:14:43.876Z,1.58
2022-07-28T18:20:05.703Z,1.70
2022-07-28T18:25:27.551Z,1.63
2022-07-28T18:30:49.506Z,1.52
2022-07-28T18:36:11.437Z,1.92
2022-07-28T18:41:34.472Z,2.65
2022-07-28T18:47:08.622Z,1.90
2022-07-28T18:52:30.491Z,1.92
2022-07-28T18:57:52.300Z,2.05
2022-07-28T19:03:14.161Z,2.60
2022-07-28T19:08:36.024Z,2.10
2022-07-28T19:13:57.855Z,1.80
2022-07-28T19:19:19.712Z,2.30
2022-07-28T19:24:42.722Z,1.80
2022-07-28T19:30:04.555Z,1.88
2022-07-28T19:35:26.407Z,2.13
2022-07-28T19:40:48.323Z,2.00
2022-07-28T19:46:10.294Z,2.03
2022-07-28T19:51:32.223Z,2.00
2022-07-28T19:56:54.248Z,2.10
2022-07-28T20:02:17.362Z,1.83
2022-07-28T20:07:39.224Z,1.70
2022-07-28T20:13:01.049Z,1.98
2022-07-28T20:18:22.885Z,2.30
2022-07-28T20:23:44.721Z,2.05
2022-07-28T20:29:06.559Z,1.92
2022-07-28T20:34:28.427Z,2.50
2022-07-28T20:39:50.286Z,2.05
2022-07-28T20:45:12.121Z,2.25
2022-07-28T20:50:34.020Z,2.65
2022-07-28T20:55:55.888Z,2.50
2022-07-28T21:01:17.795Z,2.35
2022-07-28T21:06:50.839Z,2.50
2022-07-28T21:12:13.488Z,2.28
2022-07-28T21:17:35.334Z,2.50
2022-07-28T21:22:57.195Z,2.45
2022-07-28T21:28:19.008Z,2.42
2022-07-28T21:33:40.903Z,2.28
2022-07-28T21:39:02.761Z,4.25
2022-07-28T21:44:24.586Z,4.97
2022-07-28T21:49:46.420Z,4.72
2022-07-28T21:55:08.301Z,4.32
2022-07-28T22:00:30.151Z,4.43
2022-07-28T22:05:52.000Z,4.88
2022-07-28T22:11:13.845Z,3.78
2022-07-28T22:16:35.780Z,4.70
2022-07-28T22:21:57.660Z,5.75
2022-07-28T22:27:19.476Z,5.45
2022-07-28T22:32:41.351Z,4.32
2022-07-28T22:38:03.221Z,4.60
2022-07-28T22:43:25.069Z,4.35
2022-07-28T22:48:46.944Z,3.38
2022-07-28T22:54:08.919Z,3.70
2022-07-28T22:59:30.778Z,3.13
2022-07-28T23:04:57.560Z,4.55
2022-07-28T23:10:19.423Z,4.72
2022-07-28T23:15:41.762Z,4.20
2022-07-28T23:21:03.738Z,3.17
2022-07-28T23:26:25.617Z,3.00
2022-07-28T23:31:47.566Z,2.80
2022-07-28T23:42:46.464Z,3.28
2022-07-28T23:48:08.303Z,2.70
2022-07-28T23:53:30.144Z,3.03
2022-07-28T23:58:51.994Z,3.28
